Terminal Aerodrome Forecast
Issued by NWS

Home | Current Version | Previous Version | Text Only | Print | Product List | Glossary On
Versions: 1 2 3 4 5 6 7 8 9 10 11 12 13
000
FTUS43 KIND 261122
TAFLAF
TAF
KLAF 261122Z 2612/2712 17012G20KT P6SM SCT050 BKN150
     FM270000 18011KT P6SM VCTS BKN035CB OVC045
     FM270300 16012G20KT P6SM VCTS BKN045CB WS020/18045KT
     FM270600 18015G23KT 5SM SHRA BKN020 OVC045 WS020/18045KT
     FM270900 18014KT P6SM SHRA BKN015 OVC045 WS020/19040KT
      AMD LTD TO CLD VIS AND WIND TIL 261300=

USA.gov is the U.S. government's official web portal to all federal, state and local government web resources and services.